Time;durP1;ratioP1;P1;durP2;ratioP2;P2;SDS_P1;SDS_P2;PMS_P1;PMS_P2;Temp;Humidity;BMP_temperature;BMP_pressure;BME280_temperature;BME280_humidity;BME280_pressure;Samples;Min_cycle;Max_cycle;Signal;HPM_P1;HPM_P2
2023/11/28 00:01:00;;;;;;;;;;;;;;;;;;5091995;28;19999;-74
2023/11/28 00:03:25;;;;;;;;;;;;;;;;;;5090494;28;20396;-73
2023/11/28 00:05:50;;;;;;;;;;;;;;;;;;5091850;28;19908;-74
2023/11/28 00:08:16;;;;;;;;;;;;;;;;;;5091525;28;19954;-74
2023/11/28 00:10:42;;;;;;;;;;;;;;;;;;5091509;28;19912;-74
2023/11/28 00:13:07;;;;;;;;;;;;;;;;;;5091759;28;19954;-74
2023/11/28 00:15:32;;;;;;;;;;;;;;;;;;5091820;28;20365;-74
2023/11/28 00:17:57;;;;;;;;;;;;;;;;;;5091417;28;19935;-73
2023/11/28 00:20:22;;;;;;;;;;;;;;;;;;5091720;28;19998;-74
2023/11/28 00:22:48;;;;;;;;;;;;;;;;;;5091764;28;20361;-74
2023/11/28 00:25:13;;;;;;;;;;;;;;;;;;5094484;28;19908;-74
2023/11/28 00:27:38;;;;;;;;;;;;;;;;;;5095121;28;19919;-74
2023/11/28 00:30:03;;;;;;;;;;;;;;;;;;5095280;28;19908;-74
2023/11/28 00:32:28;;;;;;;;;;;;;;;;;;5093984;28;20116;-74
2023/11/28 00:34:53;;;;;;;;;;;;;;;;;;5095010;28;19908;-74
2023/11/28 00:37:18;;;;;;;;;;;;;;;;;;5094813;28;19915;-74
2023/11/28 00:39:43;;;;;;;;;;;;;;;;;;5094934;28;19912;-74
2023/11/28 00:42:08;;;;;;;;;;;;;;;;;;5095066;28;20323;-73
2023/11/28 00:44:34;;;;;;;;;;;;;;;;;;5094913;28;19912;-74
2023/11/28 00:46:59;;;;;;;;;;;;;;;;;;5094726;28;19908;-74
2023/11/28 00:49:24;;;;;;;;;;;;;;;;;;5094852;28;20002;-74
2023/11/28 00:51:49;;;;;;;;;;;;;;;;;;5093687;28;19999;-74
2023/11/28 00:54:14;;;;;;;;;;;;;;;;;;5094604;28;20034;-74
2023/11/28 00:56:39;;;;;;;;;;;;;;;;;;5094729;28;19916;-74
2023/11/28 00:59:04;;;;;;;;;;;;;;;;;;5094491;28;19916;-74
2023/11/28 01:01:30;;;;;;;;;;;;;;;;;;5094576;28;19919;-74
2023/11/28 01:03:55;;;;;;;;;;;;;;;;;;5094482;28;19908;-74
2023/11/28 01:06:20;;;;;;;;;;;;;;;;;;5094547;28;19915;-74
2023/11/28 01:08:45;;;;;;;;;;;;;;;;;;5094298;28;19915;-74
2023/11/28 01:11:10;;;;;;;;;;;;;;;;;;5094608;28;19909;-74
2023/11/28 01:13:36;;;;;;;;;;;;;;;;;;5094262;28;19970;-74
2023/11/28 01:16:01;;;;;;;;;;;;;;;;;;5094388;28;19954;-73
2023/11/28 01:18:26;;;;;;;;;;;;;;;;;;5094189;28;20355;-74
2023/11/28 01:20:51;;;;;;;;;;;;;;;;;;5092938;28;19913;-74
2023/11/28 01:23:16;;;;;;;;;;;;;;;;;;5094023;28;19912;-74
2023/11/28 01:25:41;;;;;;;;;;;;;;;;;;5094101;28;19908;-74
2023/11/28 01:28:06;;;;;;;;;;;;;;;;;;5094035;28;19915;-74
2023/11/28 01:30:32;;;;;;;;;;;;;;;;;;5094051;28;19908;-74
2023/11/28 01:32:57;;;;;;;;;;;;;;;;;;5094049;28;19946;-74
2023/11/28 01:35:23;;;;;;;;;;;;;;;;;;5093693;28;19915;-74
2023/11/28 01:37:48;;;;;;;;;;;;;;;;;;5093749;28;20300;-74
2023/11/28 01:40:13;;;;;;;;;;;;;;;;;;5093829;28;19915;-74
2023/11/28 01:42:38;;;;;;;;;;;;;;;;;;5092609;28;19961;-74
2023/11/28 01:45:03;;;;;;;;;;;;;;;;;;5092733;28;19909;-74
2023/11/28 01:47:28;;;;;;;;;;;;;;;;;;5093566;28;19946;-74
2023/11/28 01:49:54;;;;;;;;;;;;;;;;;;5093702;28;20308;-74
2023/11/28 01:52:19;;;;;;;;;;;;;;;;;;5093435;28;19912;-74
2023/11/28 01:54:44;;;;;;;;;;;;;;;;;;5093489;28;19927;-74
2023/11/28 01:57:09;;;;;;;;;;;;;;;;;;5093499;28;19908;-74
2023/11/28 01:59:34;;;;;;;;;;;;;;;;;;5093394;28;19920;-74
2023/11/28 02:01:59;;;;;;;;;;;;;;;;;;5093519;28;19912;-74
2023/11/28 02:04:25;;;;;;;;;;;;;;;;;;5093326;28;19966;-74
2023/11/28 02:06:50;;;;;;;;;;;;;;;;;;5093210;28;19995;-74
2023/11/28 02:09:15;;;;;;;;;;;;;;;;;;5093253;28;19977;-74
2023/11/28 02:11:40;;;;;;;;;;;;;;;;;;5093461;28;19915;-74
2023/11/28 02:14:06;;;;;;;;;;;;;;;;;;5093218;28;20334;-74
2023/11/28 02:16:31;;;;;;;;;;;;;;;;;;5093184;28;20327;-73
2023/11/28 02:18:56;;;;;;;;;;;;;;;;;;5093018;28;19908;-74
2023/11/28 02:21:21;;;;;;;;;;;;;;;;;;5093032;28;20384;-74
2023/11/28 02:23:46;;;;;;;;;;;;;;;;;;5093010;28;20266;-74
2023/11/28 02:26:11;;;;;;;;;;;;;;;;;;5093047;28;19912;-74
2023/11/28 02:28:36;;;;;;;;;;;;;;;;;;5092917;28;20262;-73
2023/11/28 02:31:01;;;;;;;;;;;;;;;;;;5093077;28;19908;-73
2023/11/28 02:33:27;;;;;;;;;;;;;;;;;;5092862;28;19908;-74
2023/11/28 02:35:52;;;;;;;;;;;;;;;;;;5092871;28;19908;-73
2023/11/28 02:38:17;;;;;;;;;;;;;;;;;;5092712;28;19916;-74
2023/11/28 02:40:42;;;;;;;;;;;;;;;;;;5092825;28;19916;-74
2023/11/28 02:43:07;;;;;;;;;;;;;;;;;;5092893;28;19916;-73
2023/11/28 02:45:32;;;;;;;;;;;;;;;;;;5092701;28;19908;-74
2023/11/28 02:47:57;;;;;;;;;;;;;;;;;;5092140;28;19908;-74
2023/11/28 02:50:22;;;;;;;;;;;;;;;;;;5092682;28;20365;-73
2023/11/28 02:52:47;;;;;;;;;;;;;;;;;;5093053;28;20003;-74
2023/11/28 02:55:13;;;;;;;;;;;;;;;;;;5092359;28;19916;-74
2023/11/28 02:57:38;;;;;;;;;;;;;;;;;;5092389;28;19936;-74
2023/11/28 03:00:04;;;;;;;;;;;;;;;;;;5092431;28;20003;-73
2023/11/28 03:02:30;;;;;;;;;;;;;;;;;;5092495;28;19969;-73
2023/11/28 03:04:55;;;;;;;;;;;;;;;;;;5092382;28;19908;-74
2023/11/28 03:07:20;;;;;;;;;;;;;;;;;;5092261;28;19908;-73
2023/11/28 03:09:45;;;;;;;;;;;;;;;;;;5092549;28;20269;-73
2023/11/28 03:12:10;;;;;;;;;;;;;;;;;;5092412;28;19946;-74
2023/11/28 03:14:35;;;;;;;;;;;;;;;;;;5092425;28;19999;-73
2023/11/28 03:17:00;;;;;;;;;;;;;;;;;;5090904;28;19908;-73
2023/11/28 03:19:26;;;;;;;;;;;;;;;;;;5092364;28;19915;-74
2023/11/28 03:21:51;;;;;;;;;;;;;;;;;;5092348;28;20011;-74
2023/11/28 03:24:16;;;;;;;;;;;;;;;;;;5092082;28;19987;-73
2023/11/28 03:26:41;;;;;;;;;;;;;;;;;;5092284;28;20014;-74
2023/11/28 03:29:06;;;;;;;;;;;;;;;;;;5092215;28;19993;-73
2023/11/28 03:31:32;;;;;;;;;;;;;;;;;;5090952;28;20015;-74
2023/11/28 03:33:57;;;;;;;;;;;;;;;;;;5092100;28;20357;-73
2023/11/28 03:36:22;;;;;;;;;;;;;;;;;;5090749;28;19908;-73
2023/11/28 03:38:50;;;;;;;;;;;;;;;;;;5091973;28;19983;-73
2023/11/28 03:41:15;;;;;;;;;;;;;;;;;;5090698;28;19912;-74
2023/11/28 03:43:40;;;;;;;;;;;;;;;;;;5092067;28;19953;-73
2023/11/28 03:46:05;;;;;;;;;;;;;;;;;;5092095;28;19915;-74
2023/11/28 03:48:30;;;;;;;;;;;;;;;;;;5092020;28;19912;-74
2023/11/28 03:50:55;;;;;;;;;;;;;;;;;;5092128;28;19915;-74
2023/11/28 03:53:20;;;;;;;;;;;;;;;;;;5091755;28;19912;-74
2023/11/28 03:55:45;;;;;;;;;;;;;;;;;;5092060;28;20293;-73
2023/11/28 03:58:11;;;;;;;;;;;;;;;;;;5091738;28;20422;-73
2023/11/28 04:00:36;;;;;;;;;;;;;;;;;;5095408;28;19923;-74
2023/11/28 04:03:01;;;;;;;;;;;;;;;;;;5095759;28;19953;-73
2023/11/28 04:05:26;;;;;;;;;;;;;;;;;;5095748;28;19908;-73
2023/11/28 04:07:51;;;;;;;;;;;;;;;;;;5095499;28;19908;-73
2023/11/28 04:10:16;;;;;;;;;;;;;;;;;;5094338;28;19908;-74
2023/11/28 04:12:41;;;;;;;;;;;;;;;;;;5095740;28;19934;-73
2023/11/28 04:15:06;;;;;;;;;;;;;;;;;;5095474;28;19908;-74
2023/11/28 04:17:31;;;;;;;;;;;;;;;;;;5095288;28;19908;-73
2023/11/28 04:19:57;;;;;;;;;;;;;;;;;;5095458;28;20293;-74
2023/11/28 04:22:22;;;;;;;;;;;;;;;;;;5095467;28;19922;-74
2023/11/28 04:24:47;;;;;;;;;;;;;;;;;;5095324;28;19915;-73
2023/11/28 04:27:12;;;;;;;;;;;;;;;;;;5095122;28;19908;-74
2023/11/28 04:29:37;;;;;;;;;;;;;;;;;;5095342;28;20380;-74
2023/11/28 04:32:03;;;;;;;;;;;;;;;;;;5095262;28;19908;-74
2023/11/28 04:34:28;;;;;;;;;;;;;;;;;;5095161;28;19908;-74
2023/11/28 04:36:53;;;;;;;;;;;;;;;;;;5093696;28;19908;-74
2023/11/28 04:39:18;;;;;;;;;;;;;;;;;;5095065;28;20361;-74
2023/11/28 04:41:43;;;;;;;;;;;;;;;;;;5095066;28;19923;-73
2023/11/28 04:44:09;;;;;;;;;;;;;;;;;;5094934;28;19979;-74
2023/11/28 04:46:35;;;;;;;;;;;;;;;;;;5094856;28;19916;-73
2023/11/28 04:49:00;;;;;;;;;;;;;;;;;;5094882;28;20603;-74
2023/11/28 04:51:25;;;;;;;;;;;;;;;;;;5094862;28;20331;-74
2023/11/28 04:53:50;;;;;;;;;;;;;;;;;;5094816;28;20585;-74
2023/11/28 04:56:15;;;;;;;;;;;;;;;;;;5094734;28;19930;-74
2023/11/28 04:58:40;;;;;;;;;;;;;;;;;;5094632;28;19919;-74
2023/11/28 05:01:05;;;;;;;;;;;;;;;;;;5094696;28;19938;-74
2023/11/28 05:03:30;;;;;;;;;;;;;;;;;;5094457;28;19919;-73
2023/11/28 05:05:56;;;;;;;;;;;;;;;;;;5094600;28;19908;-74
2023/11/28 05:08:21;;;;;;;;;;;;;;;;;;5094319;28;19915;-74
2023/11/28 05:10:46;;;;;;;;;;;;;;;;;;5094164;28;20412;-74
2023/11/28 05:13:11;;;;;;;;;;;;;;;;;;5094315;28;19908;-74
2023/11/28 05:15:36;;;;;;;;;;;;;;;;;;5094404;28;19908;-74
2023/11/28 05:18:01;;;;;;;;;;;;;;;;;;5094177;28;19934;-74
2023/11/28 05:20:26;;;;;;;;;;;;;;;;;;5094441;28;20366;-74
2023/11/28 05:22:52;;;;;;;;;;;;;;;;;;5094238;28;19909;-74
2023/11/28 05:25:17;;;;;;;;;;;;;;;;;;5094229;28;19947;-74
2023/11/28 05:27:42;;;;;;;;;;;;;;;;;;5093989;28;19908;-74
2023/11/28 05:30:07;;;;;;;;;;;;;;;;;;5094181;28;20332;-74
2023/11/28 05:32:32;;;;;;;;;;;;;;;;;;5094026;28;19991;-74
2023/11/28 05:34:58;;;;;;;;;;;;;;;;;;5093990;28;19908;-74
2023/11/28 05:37:23;;;;;;;;;;;;;;;;;;5092397;28;19908;-74
2023/11/28 05:39:48;;;;;;;;;;;;;;;;;;5093872;28;19915;-74
2023/11/28 05:42:13;;;;;;;;;;;;;;;;;;5093918;28;19912;-74
2023/11/28 05:44:39;;;;;;;;;;;;;;;;;;5093715;28;19970;-74
2023/11/28 05:47:04;;;;;;;;;;;;;;;;;;5093696;28;19952;-74
2023/11/28 05:49:29;;;;;;;;;;;;;;;;;;5093832;28;20425;-74
2023/11/28 05:51:54;;;;;;;;;;;;;;;;;;5093759;28;20343;-74
2023/11/28 05:54:19;;;;;;;;;;;;;;;;;;5093477;28;20361;-74
2023/11/28 05:56:44;;;;;;;;;;;;;;;;;;5093553;28;19922;-74
2023/11/28 05:59:10;;;;;;;;;;;;;;;;;;5093287;28;19920;-74
2023/11/28 06:01:35;;;;;;;;;;;;;;;;;;5092116;28;19912;-74
2023/11/28 06:04:00;;;;;;;;;;;;;;;;;;5092147;28;19909;-74
2023/11/28 06:06:25;;;;;;;;;;;;;;;;;;5093289;28;19976;-74
2023/11/28 06:08:51;;;;;;;;;;;;;;;;;;5093262;28;19909;-73
2023/11/28 06:11:16;;;;;;;;;;;;;;;;;;5092406;28;20058;-74
2023/11/28 06:13:41;;;;;;;;;;;;;;;;;;5093367;28;19915;-74
2023/11/28 06:16:07;;;;;;;;;;;;;;;;;;5093208;28;19923;-74
2023/11/28 06:18:32;;;;;;;;;;;;;;;;;;5093105;28;20265;-74
2023/11/28 06:20:57;;;;;;;;;;;;;;;;;;5092956;28;19912;-74
2023/11/28 06:23:23;;;;;;;;;;;;;;;;;;5092568;28;20331;-74
2023/11/28 06:25:48;;;;;;;;;;;;;;;;;;5093086;28;20349;-74
2023/11/28 06:28:13;;;;;;;;;;;;;;;;;;5092908;28;19991;-74
2023/11/28 06:30:38;;;;;;;;;;;;;;;;;;5093012;28;20379;-74
2023/11/28 06:33:03;;;;;;;;;;;;;;;;;;5093000;28;20323;-74
2023/11/28 06:35:32;;;;;;;;;;;;;;;;;;5091558;28;19912;-74
2023/11/28 06:37:57;;;;;;;;;;;;;;;;;;5092730;28;19961;-74
2023/11/28 06:40:23;;;;;;;;;;;;;;;;;;5092875;28;19916;-74
2023/11/28 06:42:48;;;;;;;;;;;;;;;;;;5092929;28;20002;-74
2023/11/28 06:45:13;;;;;;;;;;;;;;;;;;5092578;28;19909;-74
2023/11/28 06:47:39;;;;;;;;;;;;;;;;;;5091436;28;19948;-74
2023/11/28 06:50:04;;;;;;;;;;;;;;;;;;5092783;28;20003;-74
2023/11/28 06:52:29;;;;;;;;;;;;;;;;;;5092520;28;19938;-74
2023/11/28 06:54:54;;;;;;;;;;;;;;;;;;5091247;28;19908;-74
2023/11/28 06:57:19;;;;;;;;;;;;;;;;;;5092287;28;20014;-74
2023/11/28 06:59:44;;;;;;;;;;;;;;;;;;5092398;28;20429;-74
2023/11/28 07:02:09;;;;;;;;;;;;;;;;;;5092437;28;19912;-74
2023/11/28 07:04:34;;;;;;;;;;;;;;;;;;5092326;28;19919;-74
2023/11/28 07:06:59;;;;;;;;;;;;;;;;;;5092259;28;19935;-74
2023/11/28 07:09:25;;;;;;;;;;;;;;;;;;5092449;28;20301;-74
2023/11/28 07:11:50;;;;;;;;;;;;;;;;;;5092451;28;20401;-74
2023/11/28 07:14:15;;;;;;;;;;;;;;;;;;5090833;28;20041;-74
2023/11/28 07:16:41;;;;;;;;;;;;;;;;;;5092298;28;19908;-74
2023/11/28 07:19:06;;;;;;;;;;;;;;;;;;5092310;28;19908;-74
2023/11/28 07:21:31;;;;;;;;;;;;;;;;;;5092201;28;19924;-74
2023/11/28 07:23:56;;;;;;;;;;;;;;;;;;5090883;28;19912;-73
2023/11/28 07:26:21;;;;;;;;;;;;;;;;;;5090971;28;19912;-74
2023/11/28 07:28:46;;;;;;;;;;;;;;;;;;5092120;28;19961;-74
2023/11/28 07:31:11;;;;;;;;;;;;;;;;;;5092365;28;19908;-74
2023/11/28 07:33:36;;;;;;;;;;;;;;;;;;5094482;28;20385;-73
2023/11/28 07:36:01;;;;;;;;;;;;;;;;;;5096238;28;19951;-73
2023/11/28 07:38:26;;;;;;;;;;;;;;;;;;5096025;28;19955;-73
2023/11/28 07:40:52;;;;;;;;;;;;;;;;;;5096217;28;19955;-74
2023/11/28 07:43:17;;;;;;;;;;;;;;;;;;5095997;28;19987;-74
2023/11/28 07:45:42;;;;;;;;;;;;;;;;;;5096122;28;20053;-74
2023/11/28 07:48:07;;;;;;;;;;;;;;;;;;5096012;28;19908;-74
2023/11/28 07:50:32;;;;;;;;;;;;;;;;;;5082325;28;19952;-74
2023/11/28 07:52:57;;;;;;;;;;;;;;;;;;5086724;28;20369;-74
2023/11/28 07:55:22;;;;;;;;;;;;;;;;;;5095719;28;19923;-74
2023/11/28 07:57:47;;;;;;;;;;;;;;;;;;5095715;28;19908;-74
2023/11/28 08:00:13;;;;;;;;;;;;;;;;;;5095748;28;19916;-74
2023/11/28 08:02:38;;;;;;;;;;;;;;;;;;5095803;28;20327;-74
2023/11/28 08:05:04;;;;;;;;;;;;;;;;;;5095707;28;19915;-74
2023/11/28 08:07:29;;;;;;;;;;;;;;;;;;5094333;28;19944;-74
2023/11/28 08:09:54;;;;;;;;;;;;;;;;;;5095789;28;20007;-74
2023/11/28 08:12:19;;;;;;;;;;;;;;;;;;5095882;28;19919;-74
2023/11/28 08:14:44;;;;;;;;;;;;;;;;;;5094232;28;20261;-74
2023/11/28 08:17:10;;;;;;;;;;;;;;;;;;5095418;28;19912;-74
2023/11/28 08:19:35;;;;;;;;;;;;;;;;;;5095553;28;19915;-74
2023/11/28 08:22:00;;;;;;;;;;;;;;;;;;5081472;28;19924;-74
2023/11/28 08:24:25;;;;;;;;;;;;;;;;;;5087127;28;19916;-74
2023/11/28 08:26:50;;;;;;;;;;;;;;;;;;5095083;28;19908;-74
2023/11/28 08:29:15;;;;;;;;;;;;;;;;;;5084955;28;19913;-74
2023/11/28 08:31:40;;;;;;;;;;;;;;;;;;5087080;28;19908;-74
2023/11/28 08:34:05;;;;;;;;;;;;;;;;;;5084889;28;19966;-74
2023/11/28 08:36:30;;;;;;;;;;;;;;;;;;5093902;28;19944;-74
2023/11/28 08:38:56;;;;;;;;;;;;;;;;;;5089566;28;19927;-74
2023/11/28 08:41:21;;;;;;;;;;;;;;;;;;5093792;28;19940;-74
2023/11/28 08:43:46;;;;;;;;;;;;;;;;;;5094748;28;19908;-74
2023/11/28 08:46:14;;;;;;;;;;;;;;;;;;5092829;28;19908;-75
2023/11/28 08:48:39;;;;;;;;;;;;;;;;;;5094647;28;19912;-75
2023/11/28 08:51:04;;;;;;;;;;;;;;;;;;5094971;28;20376;-75
2023/11/28 08:53:29;;;;;;;;;;;;;;;;;;5094587;28;19915;-75
2023/11/28 08:55:54;;;;;;;;;;;;;;;;;;5093468;28;19938;-75
2023/11/28 08:58:19;;;;;;;;;;;;;;;;;;5093258;28;19908;-75
2023/11/28 09:00:45;;;;;;;;;;;;;;;;;;5094776;28;20373;-75
2023/11/28 09:03:10;;;;;;;;;;;;;;;;;;5094697;28;19908;-75
2023/11/28 09:05:35;;;;;;;;;;;;;;;;;;5094587;28;20357;-75
2023/11/28 09:08:00;;;;;;;;;;;;;;;;;;5094286;28;19912;-74
2023/11/28 09:10:25;;;;;;;;;;;;;;;;;;5094555;28;20365;-74
2023/11/28 09:12:50;;;;;;;;;;;;;;;;;;5094588;28;19908;-74
2023/11/28 09:15:16;;;;;;;;;;;;;;;;;;5094309;28;19908;-74
2023/11/28 09:17:42;;;;;;;;;;;;;;;;;;5091126;28;20292;-74
2023/11/28 09:20:08;;;;;;;;;;;;;;;;;;5092948;28;19957;-75
2023/11/28 09:22:33;;;;;;;;;;;;;;;;;;5094193;28;19953;-74
2023/11/28 09:24:58;;;;;;;;;;;;;;;;;;5094189;28;19912;-75
2023/11/28 09:27:23;;;;;;;;;;;;;;;;;;5083765;28;19917;-75
2023/11/28 09:29:48;;;;;;;;;;;;;;;;;;5093831;28;19915;-75
2023/11/28 09:32:15;;;;;;;;;;;;;;;;;;5093734;28;19909;-75
2023/11/28 09:34:40;;;;;;;;;;;;;;;;;;5094105;28;19908;-75
2023/11/28 09:37:05;;;;;;;;;;;;;;;;;;5093665;28;19991;-74
2023/11/28 09:39:30;;;;;;;;;;;;;;;;;;5093427;28;19915;-75
2023/11/28 09:41:56;;;;;;;;;;;;;;;;;;5093543;28;19916;-75
2023/11/28 09:44:25;;;;;;;;;;;;;;;;;;5092424;28;19908;-75
2023/11/28 09:46:51;;;;;;;;;;;;;;;;;;5091969;28;19958;-74
2023/11/28 09:49:16;;;;;;;;;;;;;;;;;;5093564;28;19908;-75
2023/11/28 09:51:41;;;;;;;;;;;;;;;;;;5093580;28;19961;-75
2023/11/28 09:54:07;;;;;;;;;;;;;;;;;;5093467;28;19911;-75
2023/11/28 09:56:32;;;;;;;;;;;;;;;;;;5093500;28;19915;-75
2023/11/28 09:58:58;;;;;;;;;;;;;;;;;;5092267;28;19919;-75
2023/11/28 10:01:23;;;;;;;;;;;;;;;;;;5093432;28;19935;-75
2023/11/28 10:03:48;;;;;;;;;;;;;;;;;;5093429;28;20365;-75
2023/11/28 10:06:15;;;;;;;;;;;;;;;;;;5093329;28;19915;-75
2023/11/28 10:08:40;;;;;;;;;;;;;;;;;;5093002;28;19908;-75
2023/11/28 10:11:05;;;;;;;;;;;;;;;;;;5093536;28;19908;-75
2023/11/28 10:13:30;;;;;;;;;;;;;;;;;;5093122;28;19912;-75
2023/11/28 10:15:58;;;;;;;;;;;;;;;;;;5088272;28;19940;-74
2023/11/28 10:18:23;;;;;;;;;;;;;;;;;;5091687;28;19965;-74
2023/11/28 10:20:49;;;;;;;;;;;;;;;;;;5086377;28;19916;-75
2023/11/28 10:23:15;;;;;;;;;;;;;;;;;;5092712;28;19909;-75
2023/11/28 10:25:40;;;;;;;;;;;;;;;;;;5092216;28;19920;-74
2023/11/28 10:28:05;;;;;;;;;;;;;;;;;;5088179;28;20286;-75
2023/11/28 10:30:30;;;;;;;;;;;;;;;;;;5093056;28;19920;-75
2023/11/28 10:32:56;;;;;;;;;;;;;;;;;;5091819;28;19915;-75
2023/11/28 10:35:22;;;;;;;;;;;;;;;;;;5092836;28;20415;-74
2023/11/28 10:37:47;;;;;;;;;;;;;;;;;;5092711;28;19964;-75
2023/11/28 10:40:17;;;;;;;;;;;;;;;;;;5092761;28;19922;-74
2023/11/28 10:42:42;;;;;;;;;;;;;;;;;;5092813;28;20377;-75
2023/11/28 10:45:07;;;;;;;;;;;;;;;;;;5091487;28;19908;-75
2023/11/28 10:47:33;;;;;;;;;;;;;;;;;;5092481;28;19962;-75
2023/11/28 10:49:58;;;;;;;;;;;;;;;;;;5092670;28;20258;-74
2023/11/28 10:52:23;;;;;;;;;;;;;;;;;;5091318;28;19935;-74
2023/11/28 10:54:53;;;;;;;;;;;;;;;;;;5092038;28;19984;-74
2023/11/28 10:57:18;;;;;;;;;;;;;;;;;;5089073;28;19923;-74
2023/11/28 10:59:43;;;;;;;;;;;;;;;;;;5096799;28;19916;-80
2023/11/28 11:02:08;;;;;;;;;;;;;;;;;;5096621;28;19920;-81
2023/11/28 11:04:33;;;;;;;;;;;;;;;;;;5098377;28;19999;-81
2023/11/28 11:06:58;;;;;;;;;;;;;;;;;;5099054;28;20407;-81
2023/11/28 11:09:23;;;;;;;;;;;;;;;;;;5098277;28;20362;-80
2023/11/28 11:11:48;;;;;;;;;;;;;;;;;;5095051;28;19912;-79
2023/11/28 11:14:13;;;;;;;;;;;;;;;;;;5093454;28;19915;-79
2023/11/28 11:16:39;;;;;;;;;;;;;;;;;;5094728;28;19912;-78
2023/11/28 11:19:04;;;;;;;;;;;;;;;;;;5095297;28;19908;-79
2023/11/28 11:21:29;;;;;;;;;;;;;;;;;;5094962;28;19916;-79
2023/11/28 11:23:54;;;;;;;;;;;;;;;;;;5095623;28;19915;-79
2023/11/28 11:26:19;;;;;;;;;;;;;;;;;;5096496;28;19920;-79
2023/11/28 11:28:44;;;;;;;;;;;;;;;;;;5094767;28;19908;-79
2023/11/28 11:31:14;;;;;;;;;;;;;;;;;;5095427;28;19912;-78
2023/11/28 11:33:39;;;;;;;;;;;;;;;;;;5094067;28;19915;-78
2023/11/28 11:36:05;;;;;;;;;;;;;;;;;;5095655;28;19912;-80
2023/11/28 11:38:30;;;;;;;;;;;;;;;;;;5095892;28;19996;-80
2023/11/28 11:40:55;;;;;;;;;;;;;;;;;;5095775;28;19959;-79
2023/11/28 11:43:20;;;;;;;;;;;;;;;;;;5095161;28;20030;-79
2023/11/28 11:45:46;;;;;;;;;;;;;;;;;;5099960;28;20385;-80
2023/11/28 11:48:11;;;;;;;;;;;;;;;;;;5102890;28;19911;-80
2023/11/28 11:50:36;;;;;;;;;;;;;;;;;;5098257;28;19961;-81
2023/11/28 11:53:01;;;;;;;;;;;;;;;;;;5087007;28;19909;-80
2023/11/28 11:55:26;;;;;;;;;;;;;;;;;;5093781;28;19931;-80
2023/11/28 11:57:51;;;;;;;;;;;;;;;;;;5090225;28;19908;-80
2023/11/28 12:00:17;;;;;;;;;;;;;;;;;;5094747;28;19915;-80
2023/11/28 12:02:42;;;;;;;;;;;;;;;;;;5090032;28;19908;-80
2023/11/28 12:05:09;;;;;;;;;;;;;;;;;;5095356;28;19909;-80
2023/11/28 12:07:34;;;;;;;;;;;;;;;;;;5096284;28;20019;-80
2023/11/28 12:09:59;;;;;;;;;;;;;;;;;;5096284;28;19943;-80
2023/11/28 12:12:24;;;;;;;;;;;;;;;;;;5097267;28;20349;-81
2023/11/28 12:14:49;;;;;;;;;;;;;;;;;;5104464;28;19919;-81
2023/11/28 12:17:14;;;;;;;;;;;;;;;;;;5103914;28;19903;-80
2023/11/28 12:19:40;;;;;;;;;;;;;;;;;;5106051;28;19912;-80
2023/11/28 12:22:08;;;;;;;;;;;;;;;;;;5108146;28;19912;-81
2023/11/28 12:24:33;;;;;;;;;;;;;;;;;;5105287;28;19909;-81
2023/11/28 12:26:58;;;;;;;;;;;;;;;;;;5096690;28;19913;-81
2023/11/28 12:29:23;;;;;;;;;;;;;;;;;;5102431;28;19909;-80
2023/11/28 12:31:48;;;;;;;;;;;;;;;;;;5105434;28;19912;-80
2023/11/28 12:34:13;;;;;;;;;;;;;;;;;;5096617;28;19931;-81
2023/11/28 12:36:38;;;;;;;;;;;;;;;;;;5099369;28;19908;-81
2023/11/28 12:39:06;;;;;;;;;;;;;;;;;;5105870;28;20010;-80
2023/11/28 12:41:31;;;;;;;;;;;;;;;;;;5106619;28;20317;-81
2023/11/28 12:43:56;;;;;;;;;;;;;;;;;;5098761;28;19919;-80
2023/11/28 12:46:21;;;;;;;;;;;;;;;;;;5106572;28;19923;-80
2023/11/28 12:48:46;;;;;;;;;;;;;;;;;;5107386;28;19908;-80
2023/11/28 12:51:11;;;;;;;;;;;;;;;;;;5107679;28;19915;-80
2023/11/28 12:53:36;;;;;;;;;;;;;;;;;;5105156;28;19933;-81
2023/11/28 12:56:01;;;;;;;;;;;;;;;;;;5107569;28;19908;-81
2023/11/28 12:58:27;;;;;;;;;;;;;;;;;;5106776;28;19950;-80
2023/11/28 13:00:52;;;;;;;;;;;;;;;;;;5100097;28;19919;-80
2023/11/28 13:03:17;;;;;;;;;;;;;;;;;;5097172;28;19934;-80
2023/11/28 13:05:42;;;;;;;;;;;;;;;;;;5099270;28;19908;-79
2023/11/28 13:08:07;;;;;;;;;;;;;;;;;;5098692;28;19998;-80
2023/11/28 13:10:32;;;;;;;;;;;;;;;;;;5090028;28;20040;-80
2023/11/28 13:12:57;;;;;;;;;;;;;;;;;;5090694;28;19909;-81
2023/11/28 13:15:23;;;;;;;;;;;;;;;;;;5096223;28;19908;-80
2023/11/28 13:17:48;;;;;;;;;;;;;;;;;;5096589;28;20003;-80
2023/11/28 13:20:16;;;;;;;;;;;;;;;;;;5097981;28;20420;-81
2023/11/28 13:22:41;;;;;;;;;;;;;;;;;;5088314;28;19930;-80
2023/11/28 13:25:06;;;;;;;;;;;;;;;;;;5089895;28;19909;-80
2023/11/28 13:27:31;;;;;;;;;;;;;;;;;;5094798;28;19908;-80
2023/11/28 13:29:56;;;;;;;;;;;;;;;;;;5095978;28;19931;-80
2023/11/28 13:32:21;;;;;;;;;;;;;;;;;;5086960;28;19951;-80
2023/11/28 13:34:47;;;;;;;;;;;;;;;;;;5091719;28;19909;-80
2023/11/28 13:37:12;;;;;;;;;;;;;;;;;;5091880;28;19908;-80
2023/11/28 13:39:40;;;;;;;;;;;;;;;;;;5088183;28;19915;-80
2023/11/28 13:42:07;;;;;;;;;;;;;;;;;;5087390;28;19975;-80
2023/11/28 13:44:32;;;;;;;;;;;;;;;;;;5091805;28;19951;-80
2023/11/28 13:46:57;;;;;;;;;;;;;;;;;;5090420;28;20021;-80
2023/11/28 13:49:22;;;;;;;;;;;;;;;;;;5093535;28;19965;-81
2023/11/28 13:51:49;;;;;;;;;;;;;;;;;;5084934;28;19915;-80
2023/11/28 13:54:14;;;;;;;;;;;;;;;;;;5077449;28;20369;-80
2023/11/28 13:56:39;;;;;;;;;;;;;;;;;;5094276;28;19912;-80
2023/11/28 13:59:04;;;;;;;;;;;;;;;;;;5091739;28;19959;-81
2023/11/28 14:01:29;;;;;;;;;;;;;;;;;;5108524;28;19990;-81
2023/11/28 14:03:59;;;;;;;;;;;;;;;;;;5099617;28;19924;-81
2023/11/28 14:06:25;;;;;;;;;;;;;;;;;;5104501;28;19909;-81
2023/11/28 14:08:50;;;;;;;;;;;;;;;;;;5106496;28;19919;-81
2023/11/28 14:11:15;;;;;;;;;;;;;;;;;;5103738;28;19908;-81
2023/11/28 14:13:40;;;;;;;;;;;;;;;;;;5090696;28;20388;-80
2023/11/28 14:16:05;;;;;;;;;;;;;;;;;;5099890;28;19951;-80
2023/11/28 14:18:30;;;;;;;;;;;;;;;;;;5102318;28;20007;-80
2023/11/28 14:20:55;;;;;;;;;;;;;;;;;;5103301;28;19921;-80
2023/11/28 14:23:20;;;;;;;;;;;;;;;;;;5103587;28;19915;-80
2023/11/28 14:25:45;;;;;;;;;;;;;;;;;;5104049;28;19916;-80
2023/11/28 14:28:11;;;;;;;;;;;;;;;;;;5103103;28;19908;-81
2023/11/28 14:30:36;;;;;;;;;;;;;;;;;;5103138;28;19908;-80
2023/11/28 14:33:04;;;;;;;;;;;;;;;;;;5103981;28;19908;-80
2023/11/28 14:35:29;;;;;;;;;;;;;;;;;;5102535;28;19917;-80
2023/11/28 14:37:54;;;;;;;;;;;;;;;;;;5103866;28;19912;-80
2023/11/28 14:40:20;;;;;;;;;;;;;;;;;;5102052;28;20048;-80
2023/11/28 14:42:46;;;;;;;;;;;;;;;;;;5102234;28;19908;-80
2023/11/28 14:45:11;;;;;;;;;;;;;;;;;;5102790;28;19923;-81
2023/11/28 14:47:36;;;;;;;;;;;;;;;;;;5090332;28;19912;-78
2023/11/28 14:52:58;;;;;;;;;;;;;;;;;;5091005;28;19991;-80
2023/11/28 14:55:23;;;;;;;;;;;;;;;;;;5074015;28;19919;-80
2023/11/28 14:57:48;;;;;;;;;;;;;;;;;;5077806;28;19913;-80
2023/11/28 15:00:16;;;;;;;;;;;;;;;;;;5078844;28;19919;-79
2023/11/28 15:02:41;;;;;;;;;;;;;;;;;;5086123;28;19955;-81
2023/11/28 15:05:07;;;;;;;;;;;;;;;;;;5093503;28;19909;-80
2023/11/28 15:07:32;;;;;;;;;;;;;;;;;;5075261;28;20286;-81
2023/11/28 15:09:57;;;;;;;;;;;;;;;;;;5092436;28;19992;-80
2023/11/28 15:12:22;;;;;;;;;;;;;;;;;;5075982;28;19917;-80
2023/11/28 15:14:47;;;;;;;;;;;;;;;;;;5091486;28;19917;-81
2023/11/28 15:17:13;;;;;;;;;;;;;;;;;;5076385;28;19970;-80
2023/11/28 15:19:39;;;;;;;;;;;;;;;;;;5076530;28;19913;-80
2023/11/28 15:22:07;;;;;;;;;;;;;;;;;;5077994;28;20317;-80
2023/11/28 15:24:32;;;;;;;;;;;;;;;;;;5077948;28;20297;-80
2023/11/28 15:26:57;;;;;;;;;;;;;;;;;;5075697;28;20286;-80
2023/11/28 15:29:22;;;;;;;;;;;;;;;;;;5075098;28;19909;-80
2023/11/28 15:31:51;;;;;;;;;;;;;;;;;;5075309;28;20441;-80
2023/11/28 15:34:16;;;;;;;;;;;;;;;;;;5075119;28;19955;-80
2023/11/28 15:36:41;;;;;;;;;;;;;;;;;;5075095;28;19909;-80
2023/11/28 15:39:14;;;;;;;;;;;;;;;;;;5077477;28;19916;-80
2023/11/28 15:41:39;;;;;;;;;;;;;;;;;;5084258;28;19909;-80
2023/11/28 15:44:04;;;;;;;;;;;;;;;;;;5091905;28;19920;-80
2023/11/28 15:46:30;;;;;;;;;;;;;;;;;;5075055;28;20316;-80
2023/11/28 15:48:55;;;;;;;;;;;;;;;;;;5074998;28;19908;-80
2023/11/28 15:51:20;;;;;;;;;;;;;;;;;;5072459;28;20300;-80
2023/11/28 15:53:45;;;;;;;;;;;;;;;;;;5071794;28;20433;-80
2023/11/28 15:56:10;;;;;;;;;;;;;;;;;;5088136;28;19966;-80
2023/11/28 15:58:36;;;;;;;;;;;;;;;;;;5088482;28;19908;-80
2023/11/28 16:01:01;;;;;;;;;;;;;;;;;;5072343;28;19915;-81
2023/11/28 16:03:26;;;;;;;;;;;;;;;;;;5072222;28;19958;-80
2023/11/28 16:05:53;;;;;;;;;;;;;;;;;;5056733;28;19932;-80
2023/11/28 16:08:18;;;;;;;;;;;;;;;;;;5054588;28;19913;-80
2023/11/28 16:10:43;;;;;;;;;;;;;;;;;;5054249;28;19909;-80
2023/11/28 16:13:08;;;;;;;;;;;;;;;;;;5070795;28;20015;-80
2023/11/28 16:15:33;;;;;;;;;;;;;;;;;;5056595;28;19915;-81
2023/11/28 16:17:59;;;;;;;;;;;;;;;;;;5054725;28;19995;-81
2023/11/28 16:20:24;;;;;;;;;;;;;;;;;;5058377;28;19909;-81
2023/11/28 16:22:49;;;;;;;;;;;;;;;;;;5071006;28;19913;-81
2023/11/28 16:25:14;;;;;;;;;;;;;;;;;;5053548;28;19916;-81
2023/11/28 16:27:39;;;;;;;;;;;;;;;;;;5050046;28;19913;-82
2023/11/28 16:30:04;;;;;;;;;;;;;;;;;;5058799;28;19908;-82
2023/11/28 16:32:29;;;;;;;;;;;;;;;;;;5058588;28;19917;-79
2023/11/28 16:34:54;;;;;;;;;;;;;;;;;;5054045;28;20362;-82